createdAt,value
2024-01-20T00:01:34.849Z,20.60
2024-01-20T00:04:03.421Z,20.00
2024-01-20T00:06:33.051Z,22.93
2024-01-20T00:09:01.216Z,25.57
2024-01-20T00:11:29.356Z,20.93
2024-01-20T00:13:57.491Z,20.00
2024-01-20T00:16:25.475Z,22.03
2024-01-20T00:18:53.395Z,22.73
2024-01-20T00:21:21.527Z,20.13
2024-01-20T00:23:50.812Z,17.20
2024-01-20T00:26:19.034Z,24.87
2024-01-20T00:28:47.114Z,24.77
2024-01-20T00:31:15.180Z,24.20
2024-01-20T00:33:43.190Z,21.83
2024-01-20T00:36:11.208Z,21.70
2024-01-20T00:38:40.268Z,27.80
2024-01-20T00:41:12.623Z,17.20
2024-01-20T00:43:40.521Z,21.83
2024-01-20T00:46:09.037Z,20.87
2024-01-20T00:48:37.028Z,21.07
2024-01-20T00:51:05.136Z,23.00
2024-01-20T00:53:32.996Z,22.87
2024-01-20T00:56:04.634Z,22.60
2024-01-20T00:58:33.732Z,22.37
2024-01-20T01:01:01.607Z,17.30
2024-01-20T01:03:43.950Z,20.30
2024-01-20T01:06:11.992Z,20.37
2024-01-20T01:08:40.344Z,23.93
2024-01-20T01:11:09.313Z,25.50
2024-01-20T01:13:40.413Z,27.73
2024-01-20T01:16:11.215Z,20.90
2024-01-20T01:18:39.077Z,22.10
2024-01-20T01:21:06.905Z,20.63
2024-01-20T01:23:34.773Z,23.37
2024-01-20T01:26:02.743Z,25.97
2024-01-20T01:28:30.499Z,25.10
2024-01-20T01:30:59.587Z,26.57
2024-01-20T01:33:27.366Z,25.10
2024-01-20T01:35:55.120Z,30.90
2024-01-20T01:38:22.944Z,37.97
2024-01-20T01:40:50.799Z,28.77
2024-01-20T01:43:18.603Z,29.53
2024-01-20T01:45:46.442Z,38.03
2024-01-20T01:48:15.882Z,28.10
2024-01-20T01:50:43.768Z,31.97
2024-01-20T01:53:13.464Z,38.23
2024-01-20T01:55:44.760Z,43.63
2024-01-20T01:58:12.655Z,42.63
2024-01-20T02:00:40.442Z,40.00
2024-01-20T02:03:11.067Z,32.57
2024-01-20T02:05:40.367Z,33.83
2024-01-20T02:08:09.092Z,35.03
2024-01-20T02:10:37.778Z,44.40
2024-01-20T02:13:08.832Z,40.30
2024-01-20T02:15:38.587Z,46.13
2024-01-20T02:18:06.606Z,42.77
2024-01-20T02:20:34.463Z,41.20
2024-01-20T02:23:03.806Z,36.73
2024-01-20T02:25:31.636Z,42.00
2024-01-20T02:27:59.422Z,46.33
2024-01-20T02:30:27.416Z,39.43
2024-01-20T02:32:55.346Z,43.17
2024-01-20T02:35:22.448Z,39.77
2024-01-20T02:37:50.262Z,38.27
2024-01-20T02:40:19.507Z,38.53
2024-01-20T02:42:47.240Z,40.40
2024-01-20T02:45:15.069Z,50.37
2024-01-20T02:47:42.938Z,51.63
2024-01-20T02:50:11.038Z,55.40
2024-01-20T02:52:38.771Z,52.27
2024-01-20T02:55:10.027Z,52.20
2024-01-20T02:57:39.198Z,56.83
2024-01-20T03:00:11.215Z,52.80
2024-01-20T03:02:39.041Z,52.27
2024-01-20T03:05:10.108Z,51.67
2024-01-20T03:07:37.954Z,56.57
2024-01-20T03:10:06.903Z,57.73
2024-01-20T03:12:34.953Z,54.73
2024-01-20T03:15:04.748Z,58.17
2024-01-20T03:17:32.660Z,54.87
2024-01-20T03:20:00.516Z,58.93
2024-01-20T03:22:28.337Z,68.00
2024-01-20T03:24:56.077Z,60.87
2024-01-20T03:27:23.948Z,56.17
2024-01-20T03:29:51.984Z,61.07
2024-01-20T03:32:21.081Z,62.90
2024-01-20T03:34:49.115Z,56.70
2024-01-20T03:37:16.894Z,57.90
2024-01-20T03:39:44.688Z,56.57
2024-01-20T03:42:12.613Z,55.40
2024-01-20T03:44:40.435Z,56.37
2024-01-20T03:47:08.640Z,57.37
2024-01-20T03:49:37.805Z,58.43
2024-01-20T03:52:06.001Z,54.20
2024-01-20T03:54:33.865Z,48.50
2024-01-20T03:57:01.720Z,56.77
2024-01-20T03:59:29.544Z,55.13
2024-01-20T04:01:57.260Z,64.27
2024-01-20T04:04:25.123Z,57.67
2024-01-20T04:06:54.892Z,61.07
2024-01-20T04:09:22.774Z,56.63
2024-01-20T04:11:50.778Z,52.93
2024-01-20T04:14:18.606Z,63.47
2024-01-20T04:16:46.297Z,57.77
2024-01-20T04:19:14.128Z,58.07
2024-01-20T04:21:43.920Z,58.80
2024-01-20T04:24:12.993Z,58.57
2024-01-20T04:26:40.853Z,52.97
2024-01-20T04:29:08.932Z,61.97
2024-01-20T04:31:36.651Z,58.10
2024-01-20T04:34:04.452Z,56.80
2024-01-20T04:36:32.151Z,52.20
2024-01-20T04:38:59.839Z,53.27
2024-01-20T04:41:28.950Z,30.80
2024-01-20T04:43:56.696Z,31.03
2024-01-20T04:46:24.486Z,20.73
2024-01-20T04:48:52.341Z,15.40
2024-01-20T04:51:23.315Z,22.13
2024-01-20T04:53:52.492Z,45.20
2024-01-20T04:56:21.766Z,46.83
2024-01-20T04:58:51.022Z,54.47
2024-01-20T05:01:18.905Z,46.20
2024-01-20T05:03:46.961Z,58.70
2024-01-20T05:06:15.389Z,62.93
2024-01-20T05:08:43.205Z,61.50
2024-01-20T05:11:11.467Z,62.67
2024-01-20T05:13:39.248Z,67.83
2024-01-20T05:16:08.921Z,65.63
2024-01-20T05:18:36.755Z,71.20
2024-01-20T05:21:04.798Z,68.87
2024-01-20T05:23:32.549Z,73.60
2024-01-20T05:26:00.428Z,74.60
2024-01-20T05:28:28.184Z,79.57
2024-01-20T05:30:55.959Z,76.23
2024-01-20T05:33:25.141Z,75.37
2024-01-20T05:35:53.003Z,66.70
2024-01-20T05:38:20.848Z,77.53
2024-01-20T05:40:48.622Z,74.10
2024-01-20T05:43:16.343Z,80.60
2024-01-20T05:45:44.187Z,75.13
2024-01-20T05:48:12.095Z,95.93
2024-01-20T05:50:41.370Z,79.57
2024-01-20T05:53:09.815Z,75.60
2024-01-20T05:55:37.603Z,80.63
2024-01-20T05:58:07.959Z,90.03
2024-01-20T06:00:35.727Z,87.07
2024-01-20T06:03:03.606Z,89.60
2024-01-20T06:05:32.650Z,88.60
2024-01-20T06:08:01.892Z,102.53
2024-01-20T06:10:29.721Z,90.20
2024-01-20T06:12:57.434Z,87.70
2024-01-20T06:15:25.188Z,84.87
2024-01-20T06:17:53.022Z,92.33
2024-01-20T06:20:20.834Z,84.43
2024-01-20T06:22:48.524Z,80.17
2024-01-20T06:25:17.616Z,87.53
2024-01-20T06:27:45.314Z,91.80
2024-01-20T06:30:14.175Z,87.03
2024-01-20T06:32:42.006Z,87.17
2024-01-20T06:35:15.715Z,88.10
2024-01-20T06:37:42.477Z,87.97
2024-01-20T06:40:10.911Z,91.13
2024-01-20T06:42:40.000Z,79.70
2024-01-20T06:45:10.983Z,84.67
2024-01-20T06:47:39.075Z,82.73
2024-01-20T06:50:09.646Z,76.67
2024-01-20T06:52:37.489Z,86.10
2024-01-20T06:55:06.835Z,78.90
2024-01-20T06:57:34.667Z,81.70
2024-01-20T07:00:04.987Z,78.73
2024-01-20T07:02:34.615Z,80.70
2024-01-20T07:05:03.431Z,79.70
2024-01-20T07:07:32.689Z,79.67
2024-01-20T07:10:00.535Z,78.50
2024-01-20T07:12:29.670Z,81.17
2024-01-20T07:14:58.589Z,84.87
2024-01-20T07:17:27.727Z,84.30
2024-01-20T07:19:55.592Z,81.47
2024-01-20T07:22:23.617Z,70.37
2024-01-20T07:24:51.522Z,77.23
2024-01-20T07:27:19.431Z,82.63
2024-01-20T07:29:47.184Z,73.67
2024-01-20T07:32:15.018Z,75.17
2024-01-20T07:34:44.150Z,71.90
2024-01-20T07:37:13.355Z,80.37
2024-01-20T07:39:41.232Z,69.03
2024-01-20T07:42:09.078Z,69.43
2024-01-20T07:44:36.814Z,73.70
2024-01-20T07:47:04.986Z,70.30
2024-01-20T07:49:33.212Z,70.20
2024-01-20T07:52:02.408Z,76.03
2024-01-20T07:54:30.260Z,70.83
2024-01-20T07:56:58.081Z,72.90
2024-01-20T07:59:25.844Z,67.83
2024-01-20T08:01:53.598Z,73.47
2024-01-20T08:04:21.512Z,64.57
2024-01-20T08:06:49.549Z,70.07
2024-01-20T08:09:18.990Z,74.17
2024-01-20T08:11:46.764Z,68.03
2024-01-20T08:14:14.989Z,69.77
2024-01-20T08:16:42.764Z,69.30
2024-01-20T08:19:10.703Z,65.60
2024-01-20T08:21:38.566Z,67.97
2024-01-20T08:24:07.744Z,70.33
2024-01-20T08:26:36.856Z,70.97
2024-01-20T08:29:04.657Z,67.50
2024-01-20T08:31:32.414Z,62.63
2024-01-20T08:34:00.438Z,66.77
2024-01-20T08:36:28.494Z,70.77
2024-01-20T08:38:56.376Z,70.37
2024-01-20T08:41:24.267Z,61.30
2024-01-20T08:43:53.951Z,60.83
2024-01-20T08:46:21.855Z,65.90
2024-01-20T08:48:49.614Z,70.37
2024-01-20T08:51:17.383Z,67.87
2024-01-20T08:53:45.172Z,67.93
2024-01-20T08:56:12.936Z,64.73
2024-01-20T08:58:40.775Z,65.07
2024-01-20T09:01:10.389Z,66.23
2024-01-20T09:03:38.474Z,68.37
2024-01-20T09:06:07.042Z,70.13
2024-01-20T09:08:35.443Z,67.70
2024-01-20T09:11:03.309Z,65.23
2024-01-20T09:13:31.138Z,65.77
2024-01-20T09:15:59.094Z,68.53
2024-01-20T09:18:28.522Z,68.60
2024-01-20T09:20:56.788Z,62.37
2024-01-20T09:23:24.669Z,68.03
2024-01-20T09:25:52.603Z,71.00
2024-01-20T09:28:20.409Z,72.43
2024-01-20T09:30:48.312Z,63.77
2024-01-20T09:33:16.576Z,69.60
2024-01-20T09:35:45.864Z,62.50
2024-01-20T09:38:13.821Z,64.80
2024-01-20T09:40:48.672Z,62.73
2024-01-20T09:43:17.294Z,64.50
2024-01-20T09:45:45.605Z,59.00
2024-01-20T09:48:15.852Z,62.17
2024-01-20T09:50:45.095Z,62.53
2024-01-20T09:53:16.067Z,61.90
2024-01-20T09:55:44.939Z,65.40
2024-01-20T09:58:13.645Z,59.90
2024-01-20T10:00:42.549Z,66.23
2024-01-20T10:03:12.474Z,60.60
2024-01-20T10:05:40.505Z,65.73
2024-01-20T10:08:13.666Z,60.90
2024-01-20T10:10:41.414Z,70.53
2024-01-20T10:13:09.137Z,68.47
2024-01-20T10:15:37.251Z,70.40
2024-01-20T10:18:11.929Z,60.10
2024-01-20T10:20:39.869Z,64.87
2024-01-20T10:23:09.529Z,68.10
2024-01-20T10:25:37.481Z,68.63
2024-01-20T10:28:05.751Z,69.90
2024-01-20T10:30:33.507Z,62.20
2024-01-20T10:35:32.096Z,56.27
2024-01-20T10:38:02.630Z,65.97
2024-01-20T10:40:31.719Z,71.73
2024-01-20T10:43:06.485Z,65.63
2024-01-20T10:45:43.691Z,66.40
2024-01-20T10:48:17.699Z,62.60
2024-01-20T10:50:47.958Z,62.43
2024-01-20T10:53:16.765Z,59.90
2024-01-20T10:55:47.527Z,61.13
2024-01-20T10:58:19.670Z,58.47
2024-01-20T11:00:48.159Z,52.67
2024-01-20T11:03:17.202Z,56.33
2024-01-20T11:05:48.725Z,57.97
2024-01-20T11:08:25.240Z,52.53
2024-01-20T11:10:56.285Z,56.90
2024-01-20T11:13:27.546Z,52.93
2024-01-20T11:15:58.770Z,49.13
2024-01-20T11:18:28.436Z,54.30
2024-01-20T11:21:00.249Z,52.83
2024-01-20T11:23:28.254Z,47.23
2024-01-20T11:25:58.233Z,45.80
2024-01-20T11:28:28.518Z,53.57
2024-01-20T11:30:56.318Z,41.47
2024-01-20T11:33:25.860Z,37.87
2024-01-20T11:35:54.349Z,38.57
2024-01-20T11:38:22.803Z,38.27
2024-01-20T11:41:01.950Z,37.73
2024-01-20T11:43:29.915Z,35.63
2024-01-20T11:45:58.545Z,37.47
2024-01-20T11:48:27.241Z,39.23
2024-01-20T11:50:55.262Z,41.37
2024-01-20T11:53:24.023Z,31.47
2024-01-20T11:55:56.258Z,36.63
2024-01-20T11:58:25.392Z,37.27
2024-01-20T12:00:53.879Z,40.13
2024-01-20T12:03:23.041Z,35.23
2024-01-20T12:05:51.636Z,33.53
2024-01-20T12:08:19.971Z,32.60
2024-01-20T12:10:48.191Z,33.03
2024-01-20T12:13:17.594Z,34.23
2024-01-20T12:15:49.479Z,32.27
2024-01-20T12:18:19.317Z,33.17
2024-01-20T12:20:47.489Z,30.13
2024-01-20T12:23:20.147Z,27.93
2024-01-20T12:25:48.388Z,29.77
2024-01-20T12:28:18.187Z,32.97
2024-01-20T12:30:47.311Z,30.97
2024-01-20T12:33:15.323Z,28.87
2024-01-20T12:35:43.176Z,34.10
2024-01-20T12:38:10.953Z,29.90
2024-01-20T12:40:38.717Z,32.33
2024-01-20T12:43:06.555Z,31.17
2024-01-20T12:45:34.436Z,30.57
2024-01-20T12:48:03.699Z,28.97
2024-01-20T12:50:31.583Z,27.63
2024-01-20T12:52:59.510Z,26.20
2024-01-20T12:55:27.197Z,26.63
2024-01-20T12:57:54.940Z,31.47
2024-01-20T13:00:22.863Z,26.33
2024-01-20T13:02:50.735Z,27.23
2024-01-20T13:05:20.019Z,22.67
2024-01-20T13:07:47.942Z,28.40
2024-01-20T13:10:15.853Z,30.90
2024-01-20T13:12:43.694Z,28.00
2024-01-20T13:15:11.947Z,26.93
2024-01-20T13:17:39.970Z,26.37
2024-01-20T13:20:10.578Z,26.67
2024-01-20T13:22:39.712Z,27.13
2024-01-20T13:25:13.385Z,28.77
2024-01-20T13:27:41.171Z,28.10
2024-01-20T13:30:11.379Z,24.80
2024-01-20T13:32:39.232Z,27.73
2024-01-20T13:35:11.088Z,21.60
2024-01-20T13:37:40.186Z,23.30
2024-01-20T13:40:10.670Z,26.17
2024-01-20T13:42:40.776Z,26.63
2024-01-20T13:45:11.172Z,26.90
2024-01-20T13:47:39.184Z,21.97
2024-01-20T13:50:08.017Z,23.53
2024-01-20T13:52:35.882Z,25.63
2024-01-20T13:55:06.770Z,30.87
2024-01-20T13:57:34.785Z,41.00
2024-01-20T14:00:02.677Z,38.20
2024-01-20T14:02:30.560Z,43.57
2024-01-20T14:04:58.817Z,47.03
2024-01-20T14:07:26.769Z,47.70
2024-01-20T14:09:54.557Z,53.13
2024-01-20T14:12:23.732Z,47.03
2024-01-20T14:14:51.596Z,49.37
2024-01-20T14:17:19.377Z,54.00
2024-01-20T14:19:47.262Z,49.10
2024-01-20T14:22:15.799Z,47.73
2024-01-20T14:24:43.667Z,46.20
2024-01-20T14:27:11.476Z,46.80
2024-01-20T14:29:40.632Z,46.67
2024-01-20T14:32:11.188Z,42.10
2024-01-20T14:34:38.935Z,46.17
2024-01-20T14:37:08.125Z,41.37
2024-01-20T14:39:36.457Z,44.00
2024-01-20T14:42:04.671Z,39.83
2024-01-20T14:44:32.488Z,37.07
2024-01-20T14:47:01.622Z,34.10
2024-01-20T14:49:29.438Z,34.73
2024-01-20T14:51:57.321Z,39.73
2024-01-20T14:54:26.604Z,34.67
2024-01-20T14:56:54.541Z,34.10
2024-01-20T14:59:22.400Z,32.47
2024-01-20T15:01:50.169Z,31.67
2024-01-20T15:04:19.429Z,32.80
2024-01-20T15:06:47.313Z,34.00
2024-01-20T15:09:15.249Z,30.00
2024-01-20T15:11:43.101Z,27.73
2024-01-20T15:14:10.878Z,24.80
2024-01-20T15:16:38.599Z,28.00
2024-01-20T15:19:07.082Z,27.20
2024-01-20T15:21:37.472Z,29.33
2024-01-20T15:24:08.768Z,28.03
2024-01-20T15:26:37.694Z,28.57
2024-01-20T15:29:05.881Z,29.57
2024-01-20T15:31:33.611Z,24.67
2024-01-20T15:34:01.658Z,24.77
2024-01-20T15:36:29.611Z,28.80
2024-01-20T15:38:58.811Z,28.37
2024-01-20T15:41:27.803Z,25.80
2024-01-20T15:43:55.596Z,27.20
2024-01-20T15:46:23.498Z,25.53
2024-01-20T15:48:51.800Z,23.90
2024-01-20T15:51:19.997Z,28.33
2024-01-20T15:53:47.790Z,27.30
2024-01-20T15:56:18.593Z,27.33
2024-01-20T15:58:47.131Z,25.47
2024-01-20T16:01:15.093Z,25.37
2024-01-20T16:03:43.068Z,28.23
2024-01-20T16:06:11.528Z,25.27
2024-01-20T16:08:39.273Z,27.00
2024-01-20T16:11:09.984Z,28.17
2024-01-20T16:13:39.150Z,23.03
2024-01-20T16:16:07.890Z,28.33
2024-01-20T16:18:36.503Z,23.77
2024-01-20T16:21:04.953Z,25.33
2024-01-20T16:23:32.835Z,27.60
2024-01-20T16:26:00.589Z,27.13
2024-01-20T16:28:30.340Z,27.83
2024-01-20T16:31:01.272Z,25.17
2024-01-20T16:33:29.352Z,26.40
2024-01-20T16:35:57.124Z,23.77
2024-01-20T16:38:24.876Z,29.27
2024-01-20T16:40:53.099Z,29.90
2024-01-20T16:43:20.801Z,25.00
2024-01-20T16:45:48.584Z,25.20
2024-01-20T16:48:18.769Z,25.93
2024-01-20T16:50:46.634Z,26.50
2024-01-20T16:53:16.030Z,25.47
2024-01-20T16:55:43.929Z,26.73
2024-01-20T16:58:11.743Z,31.70
2024-01-20T17:00:39.521Z,23.83
2024-01-20T17:03:07.890Z,26.87
2024-01-20T17:05:37.062Z,29.67
2024-01-20T17:08:05.533Z,26.93
2024-01-20T17:10:33.276Z,27.30
2024-01-20T17:13:01.498Z,28.30
2024-01-20T17:15:29.296Z,27.03
2024-01-20T17:17:57.103Z,34.30
2024-01-20T17:20:24.863Z,30.53
2024-01-20T17:22:55.748Z,25.93
2024-01-20T17:25:25.397Z,27.63
2024-01-20T17:27:53.100Z,31.17
2024-01-20T17:30:20.914Z,30.50
2024-01-20T17:32:49.313Z,28.17
2024-01-20T17:35:17.343Z,27.67
2024-01-20T17:37:45.055Z,27.27
2024-01-20T17:40:16.263Z,28.37
2024-01-20T17:42:44.586Z,27.60
2024-01-20T17:45:12.531Z,30.50
2024-01-20T17:47:44.585Z,32.03
2024-01-20T17:50:12.957Z,31.57
2024-01-20T17:52:40.768Z,29.93
2024-01-20T17:55:14.514Z,27.37
2024-01-20T17:57:42.376Z,27.27
2024-01-20T18:00:13.233Z,26.53
2024-01-20T18:02:42.091Z,27.83
2024-01-20T18:05:10.483Z,29.97
2024-01-20T18:07:38.417Z,26.50
2024-01-20T18:10:10.457Z,29.63
2024-01-20T18:12:42.690Z,24.57
2024-01-20T18:15:11.214Z,23.97
2024-01-20T18:17:39.106Z,30.07
2024-01-20T18:20:11.710Z,27.40
2024-01-20T18:22:39.616Z,26.27
2024-01-20T18:25:08.642Z,30.13
2024-01-20T18:27:36.490Z,30.27
2024-01-20T18:30:09.996Z,29.23
2024-01-20T18:32:37.913Z,33.53
2024-01-20T18:35:06.472Z,29.67
2024-01-20T18:37:34.195Z,32.63
2024-01-20T18:40:01.937Z,31.27
2024-01-20T18:42:31.301Z,30.20
2024-01-20T18:44:59.344Z,30.20
2024-01-20T18:47:28.465Z,28.83
2024-01-20T18:49:56.357Z,26.67
2024-01-20T18:52:24.133Z,29.80
2024-01-20T18:54:54.934Z,31.73
2024-01-20T18:57:23.389Z,29.43
2024-01-20T18:59:51.229Z,30.90
2024-01-20T19:02:19.130Z,29.87
2024-01-20T19:04:48.461Z,30.47
2024-01-20T19:07:16.614Z,30.70
2024-01-20T19:09:44.492Z,29.60
2024-01-20T19:12:14.520Z,28.13
2024-01-20T19:14:42.451Z,28.80
2024-01-20T19:17:16.060Z,27.00
2024-01-20T19:19:44.595Z,26.20
2024-01-20T19:22:13.870Z,27.90
2024-01-20T19:24:41.783Z,27.10
2024-01-20T19:27:12.495Z,29.03
2024-01-20T19:29:41.121Z,27.73
2024-01-20T19:32:09.710Z,29.60
2024-01-20T19:34:37.639Z,32.30
2024-01-20T19:37:05.979Z,31.10
2024-01-20T19:39:35.284Z,26.83
2024-01-20T19:42:03.027Z,28.30
2024-01-20T19:44:30.882Z,27.90
2024-01-20T19:46:58.581Z,30.93
2024-01-20T19:49:26.595Z,29.43
2024-01-20T19:51:54.403Z,26.33
2024-01-20T19:54:22.545Z,29.80
2024-01-20T19:56:53.498Z,25.77
2024-01-20T19:59:21.865Z,29.03
2024-01-20T20:01:50.325Z,25.57
2024-01-20T20:04:19.364Z,24.50
2024-01-20T20:06:47.956Z,30.10
2024-01-20T20:09:17.400Z,27.30
2024-01-20T20:11:45.513Z,24.57
2024-01-20T20:14:18.385Z,27.37
2024-01-20T20:16:46.143Z,26.87
2024-01-20T20:19:14.148Z,23.53
2024-01-20T20:21:42.270Z,21.80
2024-01-20T20:24:14.636Z,24.30
2024-01-20T20:26:43.949Z,24.07
2024-01-20T20:29:14.312Z,24.30
2024-01-20T20:31:42.372Z,22.97
2024-01-20T20:34:15.024Z,25.10
2024-01-20T20:36:42.884Z,21.77
2024-01-20T20:39:10.690Z,22.67
2024-01-20T20:41:38.640Z,22.90
2024-01-20T20:44:06.655Z,22.00
2024-01-20T20:46:35.954Z,22.07
2024-01-20T20:49:04.026Z,24.87
2024-01-20T20:51:31.993Z,20.90
2024-01-20T20:53:59.780Z,21.37
2024-01-20T20:56:27.518Z,22.17
2024-01-20T20:58:55.384Z,19.60
2024-01-20T21:01:23.184Z,18.53
2024-01-20T21:03:52.453Z,22.43
2024-01-20T21:06:20.367Z,24.50
2024-01-20T21:08:48.189Z,21.47
2024-01-20T21:11:15.968Z,22.83
2024-01-20T21:13:43.695Z,23.73
2024-01-20T21:16:11.608Z,24.07
2024-01-20T21:18:40.742Z,23.87
2024-01-20T21:21:10.493Z,23.30
2024-01-20T21:23:38.261Z,24.73
2024-01-20T21:26:08.405Z,22.13
2024-01-20T21:28:36.193Z,24.17
2024-01-20T21:31:04.386Z,24.97
2024-01-20T21:33:32.258Z,27.37
2024-01-20T21:36:00.820Z,22.17
2024-01-20T21:38:29.960Z,23.03
2024-01-20T21:40:57.847Z,21.93
2024-01-20T21:43:25.545Z,26.10
2024-01-20T21:45:53.329Z,24.63
2024-01-20T21:48:21.697Z,23.03
2024-01-20T21:50:49.639Z,23.53
2024-01-20T21:53:18.706Z,24.93
2024-01-20T21:55:47.870Z,25.23
2024-01-20T21:58:15.718Z,24.63
2024-01-20T22:00:43.873Z,23.87
2024-01-20T22:03:11.921Z,23.13
2024-01-20T22:05:39.967Z,27.60
2024-01-20T22:08:08.921Z,24.40
2024-01-20T22:10:36.702Z,27.97
2024-01-20T22:13:06.017Z,28.27
2024-01-20T22:15:34.039Z,24.57
2024-01-20T22:18:02.891Z,28.40
2024-01-20T22:20:32.217Z,30.47
2024-01-20T22:23:00.199Z,26.67
2024-01-20T22:25:28.026Z,27.63
2024-01-20T22:27:56.516Z,26.50
2024-01-20T22:30:25.847Z,27.40
2024-01-20T22:32:53.750Z,25.73
2024-01-20T22:35:21.598Z,24.43
2024-01-20T22:37:49.733Z,27.57
2024-01-20T22:40:18.004Z,29.73
2024-01-20T22:42:45.816Z,28.33
2024-01-20T22:45:17.402Z,31.07
2024-01-20T22:47:48.470Z,31.73
2024-01-20T22:50:16.406Z,27.73
2024-01-20T22:52:44.185Z,28.17
2024-01-20T22:55:12.537Z,27.60
2024-01-20T22:57:40.788Z,28.53
2024-01-20T23:00:14.033Z,30.23
2024-01-20T23:02:42.317Z,28.53
2024-01-20T23:05:11.973Z,29.53
2024-01-20T23:07:39.077Z,28.87
2024-01-20T23:10:09.114Z,29.17
2024-01-20T23:12:37.586Z,29.47
2024-01-20T23:15:06.538Z,25.73
2024-01-20T23:17:34.682Z,29.30
2024-01-20T23:20:03.109Z,31.70
2024-01-20T23:22:32.547Z,32.17
2024-01-20T23:25:00.311Z,30.90
2024-01-20T23:27:28.120Z,28.67
2024-01-20T23:29:55.851Z,30.50
2024-01-20T23:32:23.555Z,26.80
2024-01-20T23:34:51.352Z,27.07
2024-01-20T23:37:19.088Z,29.23
2024-01-20T23:39:48.312Z,29.60
2024-01-20T23:42:16.180Z,28.57
2024-01-20T23:44:44.011Z,27.67
2024-01-20T23:47:11.999Z,25.87
2024-01-20T23:49:39.947Z,27.43
2024-01-20T23:52:08.127Z,30.40
2024-01-20T23:54:35.964Z,25.77
2024-01-20T23:57:05.647Z,24.80
2024-01-20T23:59:33.471Z,22.60
